createdAt,value
2019-03-12T00:03:58.345Z,5.00
2019-03-12T00:06:40.514Z,5.00
2019-03-12T00:09:22.640Z,5.10
2019-03-12T00:12:04.817Z,5.00
2019-03-12T00:14:47.451Z,5.10
2019-03-12T00:17:29.931Z,5.10
2019-03-12T00:20:11.865Z,5.10
2019-03-12T00:22:54.184Z,5.10
2019-03-12T00:25:36.751Z,5.20
2019-03-12T00:28:19.041Z,5.20
2019-03-12T00:31:00.928Z,5.10
2019-03-12T00:33:42.712Z,5.20
2019-03-12T00:36:24.766Z,5.20
2019-03-12T00:39:06.570Z,5.20
2019-03-12T00:41:48.278Z,5.20
2019-03-12T00:44:30.922Z,5.20
2019-03-12T00:47:13.238Z,5.20
2019-03-12T00:49:55.224Z,5.20
2019-03-12T00:52:37.233Z,5.30
2019-03-12T00:55:19.268Z,5.30
2019-03-12T00:58:01.303Z,5.30
2019-03-12T01:00:43.556Z,5.30
2019-03-12T01:03:25.962Z,5.30
2019-03-12T01:06:07.944Z,5.40
2019-03-12T01:08:49.942Z,5.40
2019-03-12T01:11:31.905Z,5.40
2019-03-12T01:14:13.970Z,5.40
2019-03-12T01:16:56.314Z,5.40
2019-03-12T01:19:38.825Z,5.40
2019-03-12T01:22:20.681Z,5.40
2019-03-12T01:25:02.952Z,5.50
2019-03-12T01:27:45.424Z,5.50
2019-03-12T01:30:27.491Z,5.50
2019-03-12T01:33:09.467Z,5.50
2019-03-12T01:35:51.358Z,5.50
2019-03-12T01:38:33.635Z,5.40
2019-03-12T01:41:15.483Z,5.50
2019-03-12T01:43:57.646Z,5.40
2019-03-12T01:46:39.821Z,5.40
2019-03-12T01:49:22.084Z,5.40
2019-03-12T01:52:04.350Z,5.40
2019-03-12T01:54:46.210Z,5.40
2019-03-12T01:57:28.288Z,5.30
2019-03-12T02:00:10.236Z,5.30
2019-03-12T02:02:52.333Z,5.20
2019-03-12T02:05:35.360Z,5.20
2019-03-12T02:08:17.468Z,5.20
2019-03-12T02:10:59.703Z,5.20
2019-03-12T02:13:42.034Z,5.10
2019-03-12T02:16:24.756Z,5.10
2019-03-12T02:19:06.785Z,5.10
2019-03-12T02:21:48.559Z,5.10
2019-03-12T02:24:31.208Z,5.00
2019-03-12T02:27:13.443Z,5.10
2019-03-12T02:29:55.473Z,5.10
2019-03-12T02:32:37.740Z,5.10
2019-03-12T02:35:20.042Z,5.00
2019-03-12T02:38:02.569Z,5.00
2019-03-12T02:40:45.031Z,5.00
2019-03-12T02:43:26.979Z,5.00
2019-03-12T02:46:09.350Z,5.00
2019-03-12T02:48:51.311Z,5.00
2019-03-12T02:51:33.502Z,5.10
2019-03-12T02:54:15.357Z,5.10
2019-03-12T02:56:57.810Z,5.10
2019-03-12T02:59:39.997Z,5.10
2019-03-12T03:02:22.218Z,5.10
2019-03-12T03:04:54.426Z,5.00
2019-03-12T03:07:43.133Z,5.10
2019-03-12T03:10:15.009Z,5.10
2019-03-12T03:12:45.783Z,5.10
2019-03-12T03:15:21.518Z,5.10
2019-03-12T03:17:52.100Z,5.10
2019-03-12T03:20:22.883Z,5.10
2019-03-12T03:22:53.501Z,5.20
2019-03-12T03:25:24.164Z,5.20
2019-03-12T03:27:54.850Z,5.20
2019-03-12T03:30:25.441Z,5.20
2019-03-12T03:32:56.022Z,5.20
2019-03-12T03:35:26.498Z,5.30
2019-03-12T03:37:57.035Z,5.30
2019-03-12T03:40:27.756Z,5.30
2019-03-12T03:43:00.186Z,5.30
2019-03-12T03:45:32.618Z,5.30
2019-03-12T03:48:03.344Z,5.20
2019-03-12T03:50:33.894Z,5.20
2019-03-12T03:53:04.420Z,5.20
2019-03-12T03:55:35.058Z,5.10
2019-03-12T03:58:07.526Z,5.10
2019-03-12T04:00:38.155Z,5.10
2019-03-12T04:03:08.671Z,5.10
2019-03-12T04:05:39.246Z,5.10
2019-03-12T04:08:10.009Z,5.00
2019-03-12T04:10:40.601Z,4.90
2019-03-12T04:13:11.301Z,4.90
2019-03-12T04:15:42.063Z,4.90
2019-03-12T04:18:12.807Z,4.90
2019-03-12T04:20:43.724Z,4.90
2019-03-12T04:23:16.260Z,4.80
2019-03-12T04:25:46.795Z,4.80
2019-03-12T04:28:17.563Z,4.70
2019-03-12T04:30:48.349Z,4.70
2019-03-12T04:33:55.021Z,4.70
2019-03-12T04:36:26.217Z,4.70
2019-03-12T04:38:56.941Z,4.70
2019-03-12T04:41:27.621Z,4.70
2019-03-12T04:43:58.493Z,4.70
2019-03-12T04:46:29.435Z,4.70
2019-03-12T04:49:00.270Z,4.70
2019-03-12T04:51:31.062Z,4.70
2019-03-12T04:54:02.037Z,4.70
2019-03-12T04:56:32.669Z,4.70
2019-03-12T04:59:03.521Z,4.70
2019-03-12T05:01:34.373Z,4.70
2019-03-12T05:04:05.465Z,4.70
2019-03-12T05:06:36.105Z,4.70
2019-03-12T05:09:09.325Z,4.70
2019-03-12T05:11:40.935Z,4.70
2019-03-12T05:14:37.503Z,4.70
2019-03-12T05:17:15.833Z,4.70
2019-03-12T05:19:47.055Z,4.70
2019-03-12T05:22:19.455Z,4.70
2019-03-12T05:24:50.006Z,4.60
2019-03-12T05:27:20.508Z,4.60
2019-03-12T05:29:51.584Z,4.50
2019-03-12T05:32:22.149Z,4.50
2019-03-12T05:34:53.264Z,4.60
2019-03-12T05:37:23.795Z,4.50
2019-03-12T05:39:54.350Z,4.50
2019-03-12T05:42:25.233Z,4.50
2019-03-12T05:44:56.169Z,4.50
2019-03-12T05:47:27.086Z,4.50
2019-03-12T05:49:58.716Z,4.50
2019-03-12T05:52:29.501Z,4.50
2019-03-12T05:55:00.387Z,4.50
2019-03-12T05:57:30.935Z,4.50
2019-03-12T06:00:01.625Z,4.40
2019-03-12T06:02:32.439Z,4.40
2019-03-12T06:05:22.034Z,4.40
2019-03-12T06:07:55.397Z,4.40
2019-03-12T06:10:25.151Z,4.40
2019-03-12T06:12:55.607Z,4.40
2019-03-12T06:15:26.459Z,4.50
2019-03-12T06:17:57.115Z,4.50
2019-03-12T06:20:27.804Z,4.40
2019-03-12T06:22:58.510Z,4.40
2019-03-12T06:25:29.221Z,4.30
2019-03-12T06:27:59.858Z,4.30
2019-03-12T06:30:31.908Z,4.30
2019-03-12T06:33:12.567Z,4.20
2019-03-12T06:36:02.056Z,4.30
2019-03-12T06:38:46.927Z,4.30
2019-03-12T06:41:28.462Z,4.20
2019-03-12T06:44:13.973Z,4.30
2019-03-12T06:47:07.050Z,4.20
2019-03-12T06:49:53.685Z,4.20
2019-03-12T06:52:32.739Z,4.20
2019-03-12T06:55:28.400Z,4.30
2019-03-12T06:58:34.671Z,4.30
2019-03-12T07:01:30.469Z,4.40
2019-03-12T07:04:06.849Z,4.40
2019-03-12T07:06:56.256Z,4.40
2019-03-12T07:09:48.995Z,4.40
2019-03-12T07:12:28.963Z,4.50
2019-03-12T07:15:13.775Z,4.50
2019-03-12T07:17:54.365Z,4.60
2019-03-12T07:20:50.678Z,4.50
2019-03-12T07:23:31.831Z,4.50
2019-03-12T07:26:19.973Z,4.60
2019-03-12T07:29:09.222Z,4.50
2019-03-12T07:31:46.086Z,4.60
2019-03-12T07:34:35.936Z,4.60
2019-03-12T07:37:14.936Z,4.60
2019-03-12T07:40:03.194Z,4.60
2019-03-12T07:42:55.447Z,4.70
2019-03-12T07:45:42.421Z,4.70
2019-03-12T07:48:26.519Z,4.70
2019-03-12T07:51:31.578Z,4.70
2019-03-12T07:54:20.239Z,4.70
2019-03-12T07:57:09.857Z,4.70
2019-03-12T07:59:59.479Z,4.80
2019-03-12T08:02:58.502Z,4.80
2019-03-12T08:05:56.793Z,4.80
2019-03-12T08:08:51.483Z,4.80
2019-03-12T08:11:26.181Z,4.90
2019-03-12T08:14:16.984Z,4.90
2019-03-12T08:17:16.095Z,5.00
2019-03-12T08:20:04.785Z,5.10
2019-03-12T08:22:53.138Z,5.10
2019-03-12T08:25:58.035Z,5.10
2019-03-12T08:29:02.839Z,5.10
2019-03-12T08:31:51.215Z,5.10
2019-03-12T08:34:43.540Z,5.10
2019-03-12T08:37:44.905Z,5.10
2019-03-12T08:40:53.016Z,5.20
2019-03-12T08:43:42.893Z,5.30
2019-03-12T08:46:44.491Z,5.30
2019-03-12T08:49:45.047Z,5.30
2019-03-12T08:52:26.775Z,5.30
2019-03-12T08:55:26.964Z,5.40
2019-03-12T08:58:15.467Z,5.40
2019-03-12T09:01:03.560Z,5.50
2019-03-12T09:03:44.438Z,5.50
2019-03-12T09:06:52.910Z,5.50
2019-03-12T09:10:20.798Z,5.50
2019-03-12T09:16:39.536Z,5.50
2019-03-12T09:23:23.001Z,5.70
2019-03-12T09:26:24.279Z,5.70
2019-03-12T09:29:25.018Z,5.80
2019-03-12T09:32:25.847Z,5.80
2019-03-12T09:35:33.424Z,6.00
2019-03-12T09:41:56.808Z,6.00
2019-03-12T09:44:58.302Z,6.00
2019-03-12T09:47:59.323Z,6.00
2019-03-12T09:54:34.959Z,6.20
2019-03-12T10:03:54.620Z,6.30
2019-03-12T10:06:55.392Z,6.30
2019-03-12T10:10:01.714Z,6.40
2019-03-12T10:13:08.856Z,6.40
2019-03-12T10:19:41.784Z,6.60
2019-03-12T10:25:51.053Z,6.70
2019-03-12T10:29:12.185Z,6.70
2019-03-12T10:32:13.099Z,6.70
2019-03-12T10:35:13.886Z,6.70
2019-03-12T10:38:21.087Z,6.70
2019-03-12T10:41:33.778Z,6.70
2019-03-12T10:44:44.488Z,6.80
2019-03-12T10:47:27.703Z,6.70
2019-03-12T10:50:10.515Z,6.70
2019-03-12T10:52:52.791Z,6.80
2019-03-12T10:55:34.974Z,6.80
2019-03-12T10:58:17.438Z,6.90
2019-03-12T11:00:59.568Z,6.90
2019-03-12T11:03:40.190Z,7.00
2019-03-12T11:06:29.751Z,7.00
2019-03-12T11:12:54.678Z,7.10
2019-03-12T11:22:32.478Z,7.20
2019-03-12T11:26:00.830Z,7.20
2019-03-12T11:28:43.240Z,7.20
2019-03-12T11:31:25.696Z,7.30
2019-03-12T11:34:07.689Z,7.30
2019-03-12T11:36:50.512Z,7.30
2019-03-12T11:39:33.055Z,7.30
2019-03-12T11:42:14.721Z,7.30
2019-03-12T11:44:56.944Z,7.30
2019-03-12T11:47:39.855Z,7.40
2019-03-12T11:50:22.055Z,7.40
2019-03-12T11:53:03.931Z,7.40
2019-03-12T11:55:46.023Z,7.40
2019-03-12T11:58:28.983Z,7.50
2019-03-12T12:01:11.043Z,7.50
2019-03-12T12:03:53.567Z,7.60
2019-03-12T12:06:36.333Z,7.50
2019-03-12T12:09:18.589Z,7.60
2019-03-12T12:12:01.343Z,7.60
2019-03-12T12:14:44.162Z,7.60
2019-03-12T12:17:27.378Z,7.60
2019-03-12T12:20:10.796Z,7.60
2019-03-12T12:22:53.540Z,7.60
2019-03-12T12:25:36.644Z,7.60
2019-03-12T12:28:19.477Z,7.60
2019-03-12T12:31:01.260Z,7.70
2019-03-12T12:33:43.905Z,7.60
2019-03-12T12:36:25.871Z,7.70
2019-03-12T12:39:08.228Z,7.70
2019-03-12T12:41:50.626Z,7.70
2019-03-12T12:44:32.572Z,7.70
2019-03-12T12:47:14.337Z,7.80
2019-03-12T12:49:56.915Z,7.80
2019-03-12T12:52:39.435Z,7.80
2019-03-12T12:55:21.701Z,7.80
2019-03-12T12:58:03.806Z,7.90
2019-03-12T13:00:46.002Z,7.90
2019-03-12T13:03:28.255Z,7.90
2019-03-12T13:06:10.370Z,7.90
2019-03-12T13:08:52.806Z,8.00
2019-03-12T13:11:34.857Z,8.00
2019-03-12T13:14:17.024Z,8.00
2019-03-12T13:16:58.998Z,8.00
2019-03-12T13:19:41.106Z,8.00
2019-03-12T13:22:23.548Z,8.10
2019-03-12T13:25:05.973Z,8.10
2019-03-12T13:27:48.175Z,8.10
2019-03-12T13:30:30.238Z,8.00
2019-03-12T13:33:12.470Z,8.00
2019-03-12T13:35:54.487Z,8.10
2019-03-12T13:38:45.468Z,8.10
2019-03-12T13:41:20.933Z,8.10
2019-03-12T13:44:03.047Z,8.10
2019-03-12T13:46:45.439Z,8.10
2019-03-12T13:49:27.948Z,8.20
2019-03-12T13:52:10.532Z,8.20
2019-03-12T13:54:52.692Z,8.20
2019-03-12T13:57:34.846Z,8.30
2019-03-12T14:00:17.085Z,8.30
2019-03-12T14:02:59.438Z,8.30
2019-03-12T14:05:41.650Z,8.40
2019-03-12T14:08:23.371Z,8.30
2019-03-12T14:11:05.328Z,8.30
2019-03-12T14:13:47.536Z,8.30
2019-03-12T14:16:29.606Z,8.30
2019-03-12T14:19:11.554Z,8.40
2019-03-12T14:21:53.914Z,8.40
2019-03-12T14:24:35.691Z,8.40
2019-03-12T14:27:18.300Z,8.40
2019-03-12T14:30:00.540Z,8.40
2019-03-12T14:32:42.598Z,8.40
2019-03-12T14:35:24.383Z,8.40
2019-03-12T14:38:06.469Z,8.50
2019-03-12T14:40:48.263Z,8.50
2019-03-12T14:43:30.353Z,8.50
2019-03-12T14:46:12.292Z,8.60
2019-03-12T14:48:54.702Z,8.60
2019-03-12T14:51:36.471Z,8.60
2019-03-12T14:54:18.865Z,8.60
2019-03-12T14:57:01.580Z,8.60
2019-03-12T14:59:43.915Z,8.60
2019-03-12T15:02:25.669Z,8.60
2019-03-12T15:05:08.207Z,8.60
2019-03-12T15:07:38.855Z,8.60
2019-03-12T15:10:10.385Z,8.50
2019-03-12T15:12:41.079Z,8.50
2019-03-12T15:15:13.281Z,8.50
2019-03-12T15:17:44.123Z,8.50
2019-03-12T15:20:15.246Z,8.50
2019-03-12T15:22:45.995Z,8.50
2019-03-12T15:25:16.777Z,8.50
2019-03-12T15:27:47.487Z,8.40
2019-03-12T15:30:19.229Z,8.50
2019-03-12T15:32:50.930Z,8.50
2019-03-12T15:35:21.574Z,8.40
2019-03-12T15:37:52.325Z,8.40
2019-03-12T15:40:22.854Z,8.40
2019-03-12T15:42:53.385Z,8.40
2019-03-12T15:45:24.017Z,8.40
2019-03-12T15:47:54.585Z,8.40
2019-03-12T15:50:25.083Z,8.40
2019-03-12T15:52:55.576Z,8.40
2019-03-12T15:55:27.235Z,8.40
2019-03-12T15:57:57.953Z,8.40
2019-03-12T16:00:28.581Z,8.40
2019-03-12T16:02:59.009Z,8.40
2019-03-12T16:05:29.597Z,8.40
2019-03-12T16:08:00.227Z,8.40
2019-03-12T16:10:57.794Z,8.40
2019-03-12T16:13:22.034Z,8.40
2019-03-12T16:15:52.717Z,8.40
2019-03-12T16:18:23.843Z,8.40
2019-03-12T16:20:54.533Z,8.40
2019-03-12T16:23:25.385Z,8.40
2019-03-12T16:25:55.783Z,8.40
2019-03-12T16:28:26.561Z,8.40
2019-03-12T16:30:57.022Z,8.40
2019-03-12T16:33:27.587Z,8.30
2019-03-12T16:35:58.078Z,8.30
2019-03-12T16:38:28.680Z,8.30
2019-03-12T16:40:59.577Z,8.30
2019-03-12T16:43:30.228Z,8.30
2019-03-12T16:46:00.827Z,8.30
2019-03-12T16:48:32.838Z,8.20
2019-03-12T16:51:03.732Z,8.20
2019-03-12T16:53:34.592Z,8.20
2019-03-12T16:56:05.256Z,8.20
2019-03-12T16:58:36.016Z,8.20
2019-03-12T17:01:06.534Z,8.10
2019-03-12T17:03:37.197Z,8.10
2019-03-12T17:06:08.001Z,8.10
2019-03-12T17:19:17.348Z,8.00
2019-03-12T17:21:49.654Z,7.90
2019-03-12T17:24:20.162Z,7.90
2019-03-12T17:26:51.560Z,7.80
2019-03-12T17:29:22.436Z,7.80
2019-03-12T17:31:53.347Z,7.80
2019-03-12T17:34:35.330Z,7.80
2019-03-12T17:36:56.875Z,7.80
2019-03-12T17:39:31.440Z,7.80
2019-03-12T17:42:04.216Z,7.80
2019-03-12T17:44:38.085Z,7.80
2019-03-12T17:47:27.784Z,7.80
2019-03-12T17:49:58.471Z,7.80
2019-03-12T17:52:29.202Z,7.70
2019-03-12T17:55:00.456Z,7.70
2019-03-12T17:57:30.929Z,7.70
2019-03-12T18:00:01.725Z,7.60
2019-03-12T18:02:42.553Z,7.50
2019-03-12T18:05:05.854Z,7.40
2019-03-12T18:07:36.429Z,7.30
2019-03-12T18:10:07.854Z,7.30
2019-03-12T18:12:38.756Z,7.20
2019-03-12T18:15:11.481Z,7.20
2019-03-12T18:17:43.214Z,7.20
2019-03-12T18:20:14.638Z,7.20
2019-03-12T18:22:45.271Z,7.20
2019-03-12T18:25:18.835Z,7.10
2019-03-12T18:27:49.341Z,7.10
2019-03-12T18:30:20.427Z,7.10
2019-03-12T18:32:51.001Z,7.10
2019-03-12T18:35:21.559Z,7.00
2019-03-12T18:37:52.475Z,7.00
2019-03-12T18:40:23.028Z,7.00
2019-03-12T18:42:53.637Z,7.00
2019-03-12T18:45:24.168Z,6.90
2019-03-12T18:47:54.752Z,6.90
2019-03-12T18:50:25.690Z,6.90
2019-03-12T18:52:56.440Z,6.90
2019-03-12T18:56:04.615Z,6.90
2019-03-12T18:58:35.268Z,6.90
2019-03-12T19:01:13.132Z,6.80
2019-03-12T19:03:43.869Z,6.90
2019-03-12T19:06:14.405Z,6.90
2019-03-12T19:08:48.124Z,6.90
2019-03-12T19:11:17.599Z,6.90
2019-03-12T19:13:48.101Z,6.90
2019-03-12T19:16:19.551Z,6.90
2019-03-12T19:18:50.189Z,6.90
2019-03-12T19:21:20.885Z,6.80
2019-03-12T19:23:51.411Z,6.90
2019-03-12T19:26:21.937Z,6.90
2019-03-12T19:28:52.541Z,6.90
2019-03-12T19:31:54.142Z,6.90
2019-03-12T19:34:32.553Z,6.90
2019-03-12T19:37:03.265Z,6.80
2019-03-12T19:39:33.911Z,6.80
2019-03-12T19:42:04.417Z,6.80
2019-03-12T19:44:34.975Z,6.80
2019-03-12T19:47:05.644Z,6.80
2019-03-12T19:49:36.432Z,6.80
2019-03-12T19:52:06.941Z,6.80
2019-03-12T19:54:37.483Z,6.90
2019-03-12T19:57:08.652Z,6.90
2019-03-12T19:59:39.209Z,6.90
2019-03-12T20:02:15.980Z,6.90
2019-03-12T20:04:47.223Z,6.90
2019-03-12T20:07:14.928Z,6.90
2019-03-12T20:10:45.940Z,6.90
2019-03-12T20:13:49.667Z,6.90
2019-03-12T20:17:09.597Z,6.90
2019-03-12T20:20:19.782Z,6.90
2019-03-12T20:23:26.643Z,6.90
2019-03-12T20:26:47.609Z,6.90
2019-03-12T20:29:53.583Z,7.00
2019-03-12T20:33:06.528Z,7.00
2019-03-12T20:36:25.670Z,7.00
2019-03-12T20:39:31.447Z,7.00
2019-03-12T20:42:53.979Z,7.10
2019-03-12T20:45:56.078Z,7.10
2019-03-12T20:49:25.783Z,7.10
2019-03-12T20:52:39.738Z,7.20
2019-03-12T20:55:48.653Z,7.20
2019-03-12T20:59:11.468Z,7.20
2019-03-12T21:02:20.441Z,7.30
2019-03-12T21:05:33.686Z,7.20
2019-03-12T21:08:42.347Z,7.20
2019-03-12T21:11:51.006Z,7.20
2019-03-12T21:14:59.523Z,7.20
2019-03-12T21:18:08.335Z,7.20
2019-03-12T21:21:16.952Z,7.30
2019-03-12T21:24:25.639Z,7.20
2019-03-12T21:27:07.797Z,7.30
2019-03-12T21:29:51.542Z,7.20
2019-03-12T21:32:33.927Z,7.30
2019-03-12T21:35:15.741Z,7.30
2019-03-12T21:37:57.942Z,7.30
2019-03-12T21:40:40.153Z,7.20
2019-03-12T21:43:22.306Z,7.30
2019-03-12T21:46:04.504Z,7.30
2019-03-12T21:48:46.274Z,7.30
2019-03-12T21:51:28.709Z,7.30
2019-03-12T21:54:10.656Z,7.20
2019-03-12T21:56:52.716Z,7.20
2019-03-12T21:59:35.124Z,7.20
2019-03-12T22:02:17.351Z,7.30
2019-03-12T22:04:59.722Z,7.30
2019-03-12T22:07:42.198Z,7.20
2019-03-12T22:10:23.988Z,7.20
2019-03-12T22:13:06.256Z,7.20
2019-03-12T22:15:48.066Z,7.20
2019-03-12T22:18:29.843Z,7.20
2019-03-12T22:21:12.497Z,7.20
2019-03-12T22:23:54.172Z,7.10
2019-03-12T22:26:36.627Z,7.10
2019-03-12T22:29:19.031Z,7.10
2019-03-12T22:32:01.187Z,7.00
2019-03-12T22:34:43.324Z,7.00
2019-03-12T22:37:25.586Z,7.00
2019-03-12T22:40:07.270Z,7.00
2019-03-12T22:42:49.246Z,7.00
2019-03-12T22:45:31.255Z,7.00
2019-03-12T22:48:13.200Z,7.00
2019-03-12T22:50:55.716Z,7.00
2019-03-12T22:53:38.137Z,7.10
2019-03-12T22:56:19.915Z,7.10
2019-03-12T22:59:01.904Z,7.10
2019-03-12T23:01:44.173Z,7.20
2019-03-12T23:04:26.229Z,7.20
2019-03-12T23:07:08.441Z,7.20
2019-03-12T23:09:50.450Z,7.20
2019-03-12T23:12:32.882Z,7.20
2019-03-12T23:15:15.662Z,7.20
2019-03-12T23:17:57.997Z,7.20
2019-03-12T23:20:39.918Z,7.20
2019-03-12T23:23:21.863Z,7.20
2019-03-12T23:26:03.567Z,7.20
2019-03-12T23:28:45.348Z,7.20
2019-03-12T23:31:27.374Z,7.20
2019-03-12T23:34:09.633Z,7.20
2019-03-12T23:36:52.158Z,7.20
2019-03-12T23:39:34.544Z,7.20
2019-03-12T23:42:17.332Z,7.20
2019-03-12T23:44:59.697Z,7.20
2019-03-12T23:47:42.126Z,7.20
2019-03-12T23:50:24.744Z,7.20
2019-03-12T23:53:07.029Z,7.20
2019-03-12T23:55:49.366Z,7.10
2019-03-12T23:58:31.273Z,7.20
